Main page
Satellite images 15-day forecastsClimateMarine weather Cyclones Lightning AirportsFAQ Newsletter About
Weather : Europe Africa North America South America Asia Australia-Oceania Others
Languages Contact

Nice, France

Côte d'Azur

latitude: 43-39N, longitude: 007-12E, elevation: 4 m


METAR: LFMN 210530Z 33014KT 9999 BKN023 08/01 Q1023 NOSIG
TAF: LFMN 210500Z 2106/2212 35012KT 9999 BKN025 BECMG 2110/2112 CAVOK PROB30 TEMPO 2112/2116 08010KT

Time: 07:06 (06:06 UTC)

Current weather observation

The report was made 36 minutes ago, at 05:30 UTC
Wind 14 kt from the North/Northwest
Temperature 8°C
Humidity 61%
Pressure 1023 hPa
Visibility 10 km or more
Broken clouds at a height of 2300 ft

Change units

Forecast

The report was made 1 hour and 6 minutes ago, at 05:00 UTC
Forecast valid from 21 at 06 UTC to 22 at 12 UTC
Wind 12 kt from the North
Visibility 10 km or more
Broken clouds at a height of 2500 ft
Becoming
from 21 at 10 UTC to 21 at 12 UTC
Visibility 10 km or more
no clouds below 1500 m and no cumulonimbus
Probability 30% :
Temporary
from 21 at 12 UTC to 21 at 16 UTC
Wind 10 kt from the East
The information on this site is subject to a disclaimer
Weather : Europe Africa North America South America Asia Australia-Oceania Others
Satellite images 15-day forecastsClimateMarine weather Cyclones Lightning AirportsFAQ Languages Contact Newsletter About